Terminal Aerodrome Forecast
Issued by NWS

Home | Current Version | Previous Version | Text Only | Print | Product List | Glossary On
Versions: 1 2 3 4 5 6 7 8 9 10 11 12 13 14 15 16 17 18 19 20 21 22 23 24 25 26 27 28 29 30 31 32 33 34 35 36 37 38 39 40 41 42
000
FTUS44 KHGX 011134
TAFSGR
TAF
KSGR 011134Z 0112/0212 14003KT 3SM BR BKN018 OVC040
      TEMPO 0112/0114 1/4SM FG SCT007
     FM011500 20007KT P6SM BKN025
     FM011900 23012G19KT P6SM VCSH BKN025
     FM020000 34017G25KT P6SM VCSH BKN015 OVC050
     FM020300 35015G25KT P6SM BKN250=

USA.gov is the U.S. government's official web portal to all federal, state and local government web resources and services.